Terminal Aerodrome Forecast
Issued by NWS

Home | Current Version | Previous Version | Text Only | Print | Product List | Glossary On
Versions: 1 2 3 4 5 6 7 8 9 10 11 12 13 14 15 16 17 18 19 20 21 22 23 24
000
FTUS42 TJSJ 271140
TAFKPK
TAF
TKPK 271140Z 2712/2812 12008KT P6SM FEW020
     FM272300 12008KT P6SM VCSH SCT018
     FM281000 14005KT P6SM VCSH BKN018=

USA.gov is the U.S. government's official web portal to all federal, state and local government web resources and services.